Portada
METAR-TAF:

METAR-TAF

Aeropuertos :

Aeropuerto Civil de Amán

Amán, Jordania

latitud: 31-59N, longitud: 035-59E, altitud: 767 m

Observación

El informe se hizo hace 13 minutos, a las 14:00 UTC
Viento 4 kt del este-noreste
Temperatura 23°C
Humedad 19%
Presión 1024 hPa
Visibilidad: 6000 m

METAR: OJAM 241400Z 07004KT 6000 NSC 23/M02 Q1024 NOSIG

Hora: 17:13 (14:13 UTC)

Pronóstico

El informe se hizo hace 3 horas y 13 minutos, a las 11:00 UTC
Pronóstico válido del 24 a las 12 UTC al 25 a las 18 UTC
Viento 8 kt del este-sureste
Visibilidad: 6000 m
Probabilidad 40% :
Temporalmente
del 25 a las 02 UTC al 25 a las 06 UTC
Viento 2 kt con dirección variable
Visibilidad: 3000 m
calima

TAF: OJAM 241100Z 2412/2518 11008KT 6000 NSC PROB40 TEMPO 2502/2506 VRB02KT 3000 HZ

Observaciones y pronósticos meteorológicos de más de 4000 aeropuertos (mensajes METAR y TAF).

Los puntos amarillos y rojos representan las estaciones disponibles.

Ponga el ratón en el punto deseado para ver el nombre de la estación.

Haga clic para ver las observaciones y los pronósticos meteorológicos.

Para cambiar el mapa : haga clic en los botones verdes con una cruz de color negro para hacer un zoom, en el botón verde con un guión para alejar o en las flechas verdes para mapas adyacentes.


METAR-TAF: